createdAt,value
2018-07-01T00:01:50.305Z,58.63
2018-07-01T00:04:19.229Z,58.97
2018-07-01T00:06:47.555Z,59.20
2018-07-01T00:09:16.205Z,59.24
2018-07-01T00:11:44.531Z,59.35
2018-07-01T00:14:12.856Z,59.29
2018-07-01T00:16:41.183Z,59.59
2018-07-01T00:19:08.936Z,59.97
2018-07-01T00:21:37.256Z,60.29
2018-07-01T00:24:06.176Z,60.43
2018-07-01T00:26:34.506Z,60.55
2018-07-01T00:29:02.269Z,60.81
2018-07-01T00:31:31.194Z,60.85
2018-07-01T00:33:58.940Z,61.06
2018-07-01T00:36:27.849Z,61.02
2018-07-01T00:38:56.176Z,61.24
2018-07-01T00:41:24.507Z,61.40
2018-07-01T00:43:52.243Z,61.14
2018-07-01T00:46:20.564Z,61.27
2018-07-01T00:48:48.905Z,61.42
2018-07-01T00:51:17.911Z,61.72
2018-07-01T00:53:46.341Z,61.85
2018-07-01T00:56:14.944Z,61.76
2018-07-01T00:58:43.272Z,62.04
2018-07-01T01:01:11.684Z,62.17
2018-07-01T01:03:40.017Z,62.42
2018-07-01T01:06:08.397Z,62.76
2018-07-01T01:08:36.667Z,62.71
2018-07-01T01:11:05.007Z,62.76
2018-07-01T01:13:33.373Z,62.90
2018-07-01T01:16:01.704Z,62.98
2018-07-01T01:18:30.088Z,62.94
2018-07-01T01:20:57.849Z,62.92
2018-07-01T01:23:26.195Z,63.06
2018-07-01T01:25:55.261Z,63.35
2018-07-01T01:28:24.162Z,63.24
2018-07-01T01:30:52.486Z,63.12
2018-07-01T01:33:20.228Z,63.18
2018-07-01T01:35:48.555Z,63.14
2018-07-01T01:38:17.454Z,63.21
2018-07-01T01:40:45.207Z,63.14
2018-07-01T01:43:13.883Z,63.16
2018-07-01T01:45:42.486Z,63.16
2018-07-01T01:48:10.818Z,63.31
2018-07-01T01:50:39.142Z,63.16
2018-07-01T01:53:07.493Z,63.14
2018-07-01T01:55:35.815Z,63.14
2018-07-01T01:58:04.118Z,63.21
2018-07-01T02:00:32.463Z,63.23
2018-07-01T02:03:00.793Z,63.18
2018-07-01T02:05:30.243Z,63.15
2018-07-01T02:07:57.440Z,63.08
2018-07-01T02:10:25.985Z,63.03
2018-07-01T02:12:55.101Z,63.20
2018-07-01T02:15:23.425Z,63.17
2018-07-01T02:17:51.792Z,63.26
2018-07-01T02:20:20.149Z,63.30
2018-07-01T02:22:48.739Z,63.38
2018-07-01T02:25:17.124Z,63.41
2018-07-01T02:27:45.502Z,63.63
2018-07-01T02:30:13.810Z,63.83
2018-07-01T02:32:42.160Z,63.84
2018-07-01T02:35:10.605Z,63.88
2018-07-01T02:37:38.885Z,63.72
2018-07-01T02:40:07.242Z,63.95
2018-07-01T02:42:35.532Z,64.05
2018-07-01T02:45:03.892Z,64.19
2018-07-01T02:47:33.851Z,64.20
2018-07-01T02:50:00.826Z,64.44
2018-07-01T02:52:29.390Z,64.43
2018-07-01T02:54:57.497Z,64.35
2018-07-01T02:57:25.299Z,64.29
2018-07-01T02:59:54.216Z,64.08
2018-07-01T03:02:22.522Z,64.27
2018-07-01T03:04:50.843Z,64.32
2018-07-01T03:12:47.291Z,64.78
2018-07-01T03:15:15.635Z,64.43
2018-07-01T03:17:43.967Z,64.23
2018-07-01T03:20:12.282Z,64.12
2018-07-01T03:22:40.607Z,64.06
2018-07-01T03:25:08.943Z,64.20
2018-07-01T03:27:37.286Z,64.32
2018-07-01T03:30:05.654Z,64.36
2018-07-01T03:32:33.398Z,64.69
2018-07-01T03:35:01.726Z,64.73
2018-07-01T03:37:30.621Z,64.74
2018-07-01T03:39:58.959Z,64.72
2018-07-01T03:42:27.512Z,64.81
2018-07-01T03:44:55.041Z,64.79
2018-07-01T03:47:23.362Z,64.66
2018-07-01T03:49:52.273Z,64.58
2018-07-01T03:52:20.605Z,64.68
2018-07-01T03:54:48.940Z,64.72
2018-07-01T03:57:17.282Z,64.77
2018-07-01T03:59:45.375Z,64.81
2018-07-01T04:02:13.920Z,64.85
2018-07-01T04:04:42.241Z,64.94
2018-07-01T04:07:09.986Z,64.93
2018-07-01T04:09:38.914Z,64.90
2018-07-01T04:12:07.236Z,64.77
2018-07-01T04:14:34.989Z,64.70
2018-07-01T04:17:03.316Z,64.62
2018-07-01T04:19:32.220Z,64.60
2018-07-01T04:22:00.211Z,64.53
2018-07-01T04:24:28.347Z,64.53
2018-07-01T04:26:57.268Z,64.54
2018-07-01T04:29:25.610Z,64.45
2018-07-01T04:31:53.365Z,64.55
2018-07-01T04:34:22.267Z,64.46
2018-07-01T04:36:50.605Z,64.50
2018-07-01T04:39:18.953Z,64.24
2018-07-01T04:41:46.706Z,64.22
2018-07-01T04:44:15.645Z,64.19
2018-07-01T04:46:43.939Z,64.22
2018-07-01T04:49:12.348Z,64.10
2018-07-01T04:51:40.650Z,63.76
2018-07-01T04:54:08.987Z,63.50
2018-07-01T04:56:36.737Z,63.56
2018-07-01T04:59:05.641Z,63.28
2018-07-01T05:01:33.984Z,63.03
2018-07-01T05:04:02.321Z,62.91
2018-07-01T05:06:30.054Z,62.95
2018-07-01T05:08:58.962Z,62.72
2018-07-01T05:11:27.318Z,62.46
2018-07-01T05:13:55.648Z,62.27
2018-07-01T05:16:24.298Z,62.14
2018-07-01T05:18:51.967Z,62.03
2018-07-01T05:21:20.645Z,61.77
2018-07-01T05:23:48.966Z,61.58
2018-07-01T05:26:16.731Z,61.47
2018-07-01T05:28:45.659Z,61.43
2018-07-01T05:31:14.042Z,61.42
2018-07-01T05:33:41.788Z,61.39
2018-07-01T05:36:10.816Z,61.64
2018-07-01T05:38:39.737Z,61.20
2018-07-01T05:41:08.077Z,61.08
2018-07-01T05:43:38.473Z,61.38
2018-07-01T05:46:04.750Z,61.50
2018-07-01T05:48:33.060Z,60.89
2018-07-01T05:51:01.429Z,61.09
2018-07-01T05:53:29.158Z,60.88
2018-07-01T05:55:57.480Z,60.87
2018-07-01T05:58:26.409Z,60.39
2018-07-01T06:00:54.803Z,60.08
2018-07-01T06:03:23.771Z,59.87
2018-07-01T06:05:52.082Z,60.12
2018-07-01T06:08:20.425Z,60.16
2018-07-01T06:10:51.555Z,60.05
2018-07-01T06:13:18.198Z,60.00
2018-07-01T06:15:45.968Z,60.10
2018-07-01T06:18:14.858Z,60.02
2018-07-01T06:20:43.202Z,60.21
2018-07-01T06:23:11.527Z,59.79
2018-07-01T06:25:39.890Z,58.71
2018-07-01T06:28:07.671Z,57.92
2018-07-01T06:30:53.620Z,57.57
2018-07-01T06:33:20.173Z,57.03
2018-07-01T06:35:48.646Z,57.31
2018-07-01T06:38:16.872Z,57.31
2018-07-01T06:40:45.142Z,57.01
2018-07-01T06:43:13.464Z,57.48
2018-07-01T06:45:41.821Z,57.58
2018-07-01T06:48:10.137Z,57.23
2018-07-01T06:50:38.476Z,56.85
2018-07-01T06:53:09.637Z,56.42
2018-07-01T06:55:37.969Z,56.25
2018-07-01T06:58:06.412Z,55.96
2018-07-01T07:00:34.761Z,54.71
2018-07-01T07:03:03.082Z,54.04
2018-07-01T07:05:31.418Z,53.79
2018-07-01T07:07:59.761Z,53.69
2018-07-01T07:10:28.149Z,53.51
2018-07-01T07:12:56.502Z,52.99
2018-07-01T07:15:24.226Z,53.47
2018-07-01T07:17:53.156Z,52.68
2018-07-01T07:20:21.470Z,52.27
2018-07-01T07:22:49.798Z,52.34
2018-07-01T07:25:18.121Z,52.62
2018-07-01T07:27:47.085Z,52.60
2018-07-01T07:33:11.081Z,52.69
2018-07-01T07:35:39.406Z,52.24
2018-07-01T07:38:07.725Z,52.25
2018-07-01T07:40:36.089Z,52.11
2018-07-01T07:43:04.417Z,52.21
2018-07-01T07:45:32.179Z,52.28
2018-07-01T07:48:00.526Z,51.44
2018-07-01T07:50:29.462Z,51.70
2018-07-01T07:52:57.786Z,52.02
2018-07-01T07:55:26.111Z,51.62
2018-07-01T07:57:53.902Z,51.54
2018-07-01T08:00:22.819Z,50.82
2018-07-01T08:02:51.147Z,51.15
2018-07-01T08:05:19.515Z,51.73
2018-07-01T08:07:47.848Z,51.78
2018-07-01T08:10:16.165Z,51.64
2018-07-01T08:12:44.536Z,51.64
2018-07-01T08:15:12.835Z,51.93
2018-07-01T08:17:41.157Z,51.76
2018-07-01T08:20:17.056Z,50.76
2018-07-01T08:22:42.958Z,51.06
2018-07-01T08:25:11.297Z,50.98
2018-07-01T08:27:39.609Z,50.51
2018-07-01T08:30:07.931Z,50.60
2018-07-01T08:32:36.252Z,48.95
2018-07-01T08:35:04.014Z,49.73
2018-07-01T08:37:32.964Z,50.29
2018-07-01T08:40:01.312Z,49.97
2018-07-01T08:42:29.619Z,49.62
2018-07-01T08:44:58.167Z,50.21
2018-07-01T08:47:32.740Z,50.72
2018-07-01T09:04:36.468Z,48.77
2018-07-01T09:09:32.608Z,48.05
2018-07-01T09:12:01.533Z,48.37
2018-07-01T09:14:29.865Z,48.53
2018-07-01T09:16:57.661Z,48.79
2018-07-01T09:19:26.566Z,48.65
2018-07-01T09:21:54.916Z,48.77
2018-07-01T09:24:23.264Z,49.14
2018-07-01T09:26:54.874Z,49.61
2018-07-01T09:29:23.249Z,48.90
2018-07-01T09:31:50.995Z,49.01
2018-07-01T09:34:19.318Z,49.36
2018-07-01T09:36:47.690Z,48.51
2018-07-01T09:39:16.593Z,47.59
2018-07-01T09:41:44.913Z,47.75
2018-07-01T09:44:13.296Z,47.83
2018-07-01T09:46:41.049Z,47.80
2018-07-01T09:49:09.991Z,46.53
2018-07-01T09:51:38.322Z,46.44
2018-07-01T09:54:06.694Z,45.45
2018-07-01T09:56:34.459Z,44.88
2018-07-01T09:59:03.385Z,44.57
2018-07-01T10:01:34.194Z,44.06
2018-07-01T10:04:02.517Z,44.62
2018-07-01T10:06:31.464Z,44.53
2018-07-01T10:08:59.793Z,43.59
2018-07-01T10:11:28.856Z,43.04
2018-07-01T10:13:56.464Z,43.25
2018-07-01T10:16:25.320Z,43.55
2018-07-01T10:18:53.587Z,43.51
2018-07-01T10:21:21.865Z,43.15
2018-07-01T10:23:50.199Z,43.72
2018-07-01T10:26:18.526Z,44.26
2018-07-01T10:28:46.275Z,44.84
2018-07-01T10:31:15.201Z,45.09
2018-07-01T10:33:43.553Z,44.76
2018-07-01T10:36:11.896Z,44.06
2018-07-01T10:38:40.226Z,44.49
2018-07-01T10:41:08.566Z,44.36
2018-07-01T10:43:36.893Z,44.56
2018-07-01T10:46:04.641Z,44.61
2018-07-01T10:48:33.550Z,44.83
2018-07-01T10:51:01.900Z,43.90
2018-07-01T10:53:30.230Z,44.17
2018-07-01T10:55:58.188Z,44.83
2018-07-01T10:58:26.921Z,44.30
2018-07-01T11:00:54.664Z,43.96
2018-07-01T11:03:23.597Z,43.95
2018-07-01T11:05:51.934Z,44.73
2018-07-01T11:08:24.177Z,45.69
2018-07-01T11:10:51.928Z,45.95
2018-07-01T11:13:20.843Z,46.28
2018-07-01T11:15:49.161Z,46.61
2018-07-01T11:18:17.484Z,45.96
2018-07-01T11:20:46.038Z,45.23
2018-07-01T11:23:13.564Z,44.17
2018-07-01T11:25:41.890Z,43.50
2018-07-01T11:28:10.814Z,42.93
2018-07-01T11:30:39.142Z,43.71
2018-07-01T11:33:07.516Z,44.17
2018-07-01T11:35:35.799Z,42.96
2018-07-01T11:38:04.139Z,41.96
2018-07-01T11:40:32.491Z,41.67
2018-07-01T11:43:05.267Z,41.93
2018-07-01T11:45:29.488Z,42.60
2018-07-01T11:47:57.809Z,42.53
2018-07-01T11:50:26.458Z,42.71
2018-07-01T11:52:55.387Z,42.50
2018-07-01T11:55:23.132Z,41.95
2018-07-01T11:57:51.466Z,42.15
2018-07-01T12:00:19.782Z,42.03
2018-07-01T12:02:53.042Z,41.90
2018-07-01T12:05:22.151Z,41.89
2018-07-01T12:07:50.483Z,42.52
2018-07-01T12:10:18.852Z,42.89
2018-07-01T12:12:47.164Z,42.26
2018-07-01T12:15:20.117Z,42.38
2018-07-01T12:17:49.172Z,42.37
2018-07-01T12:20:18.305Z,40.96
2018-07-01T12:22:46.616Z,41.12
2018-07-01T12:25:14.358Z,40.66
2018-07-01T12:27:42.679Z,41.02
2018-07-01T12:30:11.011Z,41.90
2018-07-01T12:32:39.918Z,42.84
2018-07-01T12:35:08.247Z,41.80
2018-07-01T12:37:36.560Z,40.83
2018-07-01T12:40:04.893Z,41.19
2018-07-01T12:42:33.229Z,41.51
2018-07-01T12:45:01.570Z,42.15
2018-07-01T12:47:29.327Z,41.92
2018-07-01T12:49:58.223Z,41.02
2018-07-01T12:52:25.978Z,41.08
2018-07-01T12:54:54.360Z,41.54
2018-07-01T12:57:23.208Z,41.61
2018-07-01T12:59:51.535Z,40.44
2018-07-01T13:02:19.864Z,40.14
2018-07-01T13:04:48.170Z,40.69
2018-07-01T13:07:16.490Z,41.24
2018-07-01T13:09:44.823Z,40.16
2018-07-01T13:12:13.251Z,40.01
2018-07-01T13:14:40.934Z,40.02
2018-07-01T13:17:09.250Z,39.77
2018-07-01T13:19:38.161Z,40.04
2018-07-01T13:22:06.481Z,39.98
2018-07-01T13:24:34.226Z,40.20
2018-07-01T13:27:03.122Z,39.04
2018-07-01T13:29:31.447Z,39.65
2018-07-01T13:31:59.763Z,40.37
2018-07-01T13:34:28.087Z,40.27
2018-07-01T13:36:55.827Z,39.80
2018-07-01T13:39:24.726Z,39.78
2018-07-01T13:41:53.049Z,40.04
2018-07-01T13:44:21.405Z,40.73
2018-07-01T13:46:49.748Z,41.14
2018-07-01T13:49:18.078Z,41.02
2018-07-01T13:51:46.972Z,40.91
2018-07-01T13:54:15.299Z,40.42
2018-07-01T13:56:43.639Z,40.56
2018-07-01T13:59:11.958Z,40.77
2018-07-01T14:01:39.727Z,39.85
2018-07-01T14:04:08.669Z,39.27
2018-07-01T14:06:36.415Z,38.92
2018-07-01T14:09:05.287Z,38.84
2018-07-01T14:11:33.605Z,38.79
2018-07-01T14:14:01.979Z,39.13
2018-07-01T14:16:30.295Z,39.55
2018-07-01T14:18:58.036Z,39.49
2018-07-01T14:21:31.298Z,39.45
2018-07-01T14:23:59.704Z,39.40
2018-07-01T14:26:28.038Z,39.65
2018-07-01T14:28:55.777Z,39.52
2018-07-01T14:31:24.091Z,38.92
2018-07-01T14:33:52.982Z,39.45
2018-07-01T14:36:20.733Z,39.80
2018-07-01T14:38:49.056Z,40.47
2018-07-01T14:41:17.957Z,40.54
2018-07-01T14:43:46.278Z,41.01
2018-07-01T14:46:14.073Z,40.96
2018-07-01T14:48:42.992Z,40.05
2018-07-01T14:51:11.300Z,40.15
2018-07-01T14:53:39.761Z,40.72
2018-07-01T14:56:07.502Z,41.22
2018-07-01T14:58:36.421Z,40.63
2018-07-01T15:01:04.753Z,40.66
2018-07-01T15:03:33.060Z,41.11
2018-07-01T15:06:01.379Z,41.30
2018-07-01T15:08:29.110Z,41.72
2018-07-01T15:10:58.950Z,42.50
2018-07-01T15:13:27.286Z,43.26
2018-07-01T15:15:55.684Z,43.83
2018-07-01T15:18:23.475Z,44.47
2018-07-01T15:20:52.379Z,44.71
2018-07-01T15:23:20.770Z,43.98
2018-07-01T15:25:49.125Z,43.58
2018-07-01T15:28:17.461Z,43.07
2018-07-01T15:30:45.773Z,42.38
2018-07-01T15:33:15.539Z,42.55
2018-07-01T15:35:42.780Z,42.33
2018-07-01T15:38:10.536Z,41.65
2018-07-01T15:40:44.610Z,41.42
2018-07-01T15:43:13.027Z,41.70
2018-07-01T15:45:40.810Z,41.39
2018-07-01T15:48:09.718Z,41.10
2018-07-01T15:50:38.061Z,40.07
2018-07-01T15:53:06.446Z,40.04
2018-07-01T15:55:36.336Z,40.46
2018-07-01T15:58:04.667Z,40.60
2018-07-01T16:00:33.006Z,40.65
2018-07-01T16:03:01.354Z,39.93
2018-07-01T16:05:29.431Z,39.14
2018-07-01T16:07:58.013Z,39.33
2018-07-01T16:10:25.806Z,40.10
2018-07-01T16:12:54.704Z,40.36
2018-07-01T16:15:23.098Z,41.04
2018-07-01T16:17:51.478Z,41.50
2018-07-01T16:20:19.229Z,41.55
2018-07-01T16:22:48.246Z,41.51
2018-07-01T16:25:16.648Z,41.49
2018-07-01T16:27:45.088Z,41.80
2018-07-01T16:30:13.407Z,42.49
2018-07-01T16:32:41.830Z,43.09
2018-07-01T16:35:10.151Z,43.56
2018-07-01T16:37:37.895Z,43.25
2018-07-01T16:40:06.894Z,43.70
2018-07-01T16:42:35.207Z,43.98
2018-07-01T16:45:03.561Z,44.14
2018-07-01T16:47:33.503Z,43.84
2018-07-01T16:50:00.849Z,43.11
2018-07-01T16:52:30.145Z,42.81
2018-07-01T16:54:57.178Z,43.04
2018-07-01T16:57:25.914Z,43.47
2018-07-01T16:59:54.618Z,44.14
2018-07-01T17:02:22.975Z,44.47
2018-07-01T17:04:51.292Z,44.78
2018-07-01T17:07:19.599Z,45.04
2018-07-01T17:09:47.343Z,45.22
2018-07-01T17:12:16.278Z,45.51
2018-07-01T17:14:44.670Z,45.70
2018-07-01T17:17:12.999Z,45.89
2018-07-01T17:19:41.419Z,45.99
2018-07-01T17:22:23.444Z,46.02
2018-07-01T17:24:51.274Z,46.30
2018-07-01T17:27:19.601Z,46.67
2018-07-01T17:29:51.804Z,46.93
2018-07-01T17:32:21.913Z,46.99
2018-07-01T17:34:50.710Z,47.04
2018-07-01T17:37:23.995Z,47.11
2018-07-01T17:39:52.432Z,47.52
2018-07-01T17:42:20.162Z,47.93
2018-07-01T17:44:48.564Z,48.35
2018-07-01T17:49:52.619Z,48.95
2018-07-01T17:52:20.932Z,49.07
2018-07-01T17:54:49.307Z,49.16
2018-07-01T17:57:17.773Z,49.14
2018-07-01T17:59:46.126Z,49.26
2018-07-01T18:02:15.319Z,49.27
2018-07-01T18:04:50.681Z,49.03
2018-07-01T18:07:20.125Z,48.72
2018-07-01T18:09:47.449Z,48.60
2018-07-01T18:12:16.210Z,49.12
2018-07-01T18:14:44.782Z,49.33
2018-07-01T18:17:13.232Z,49.53
2018-07-01T18:19:41.548Z,49.74
2018-07-01T18:22:27.956Z,50.04
2018-07-01T18:25:04.502Z,50.08
2018-07-01T18:27:22.816Z,50.60
2018-07-01T18:29:51.283Z,51.20
2018-07-01T18:32:19.826Z,51.54
2018-07-01T18:34:48.204Z,51.92
2018-07-01T18:37:16.032Z,52.11
2018-07-01T18:39:44.972Z,52.30
2018-07-01T18:42:13.437Z,52.57
2018-07-01T18:44:41.231Z,52.78
2018-07-01T18:47:10.192Z,52.90
2018-07-01T18:49:38.569Z,53.31
2018-07-01T18:52:08.596Z,53.49
2018-07-01T18:54:36.354Z,53.70
2018-07-01T18:57:04.710Z,53.99
2018-07-01T18:59:34.564Z,53.99
2018-07-01T19:02:03.494Z,54.17
2018-07-01T19:04:31.825Z,54.12
2018-07-01T19:07:00.187Z,54.19
2018-07-01T19:09:28.472Z,54.00
2018-07-01T19:11:56.823Z,54.19
2018-07-01T19:14:31.405Z,54.29
2018-07-01T19:17:00.522Z,54.24
2018-07-01T19:19:28.305Z,54.18
2018-07-01T19:21:57.293Z,54.28
2018-07-01T19:24:25.683Z,54.47
2018-07-01T19:26:54.246Z,54.72
2018-07-01T19:29:22.585Z,55.01
2018-07-01T19:31:50.370Z,54.96
2018-07-01T19:34:19.292Z,55.02
2018-07-01T19:36:47.669Z,55.09
2018-07-01T19:39:16.046Z,54.94
2018-07-01T19:41:44.384Z,54.93
2018-07-01T19:44:12.731Z,54.80
2018-07-01T19:46:41.599Z,54.64
2018-07-01T19:49:09.930Z,54.42
2018-07-01T19:51:38.286Z,54.50
2018-07-01T19:54:06.631Z,54.51
2018-07-01T19:56:35.009Z,54.60
2018-07-01T19:59:03.437Z,54.67
2018-07-01T20:01:31.204Z,54.67
2018-07-01T20:04:00.165Z,54.81
2018-07-01T20:06:28.527Z,54.90
2018-07-01T20:08:56.850Z,55.05
2018-07-01T20:11:25.409Z,54.87
2018-07-01T20:13:53.542Z,54.90
2018-07-01T20:16:21.863Z,54.99
2018-07-01T20:18:50.188Z,55.14
2018-07-01T20:21:18.509Z,55.20
2018-07-01T20:23:46.971Z,55.47
2018-07-01T20:26:15.306Z,55.63
2018-07-01T20:28:43.627Z,55.84
2018-07-01T20:31:11.961Z,56.15
2018-07-01T20:33:40.968Z,56.43
2018-07-01T20:36:09.405Z,56.80
2018-07-01T20:38:37.648Z,56.98
2018-07-01T20:41:05.982Z,57.12
2018-07-01T20:43:34.323Z,57.32
2018-07-01T20:46:02.068Z,57.57
2018-07-01T20:48:30.989Z,57.68
2018-07-01T20:50:59.410Z,58.01
2018-07-01T20:53:27.713Z,58.09
2018-07-01T20:55:55.453Z,58.13
2018-07-01T21:00:58.358Z,58.40
2018-07-01T21:03:26.677Z,58.60
2018-07-01T21:05:55.113Z,58.64
2018-07-01T21:08:23.387Z,58.93
2018-07-01T21:10:52.906Z,59.00
2018-07-01T21:13:21.816Z,59.12
2018-07-01T21:15:50.140Z,59.29
2018-07-01T21:18:18.495Z,59.39
2018-07-01T21:20:46.240Z,59.62
2018-07-01T21:23:15.155Z,59.81
2018-07-01T21:25:43.707Z,60.03
2018-07-01T21:28:11.386Z,59.97
2018-07-01T21:30:40.361Z,59.94
2018-07-01T21:33:17.243Z,59.92
2018-07-01T21:35:44.974Z,59.88
2018-07-01T21:38:14.009Z,59.95
2018-07-01T21:40:42.333Z,59.97
2018-07-01T21:43:10.062Z,60.00
2018-07-01T21:45:38.382Z,60.05
2018-07-01T21:48:07.284Z,60.10
2018-07-01T21:50:35.604Z,60.09
2018-07-01T21:53:03.939Z,60.28
2018-07-01T21:55:31.670Z,60.38
2018-07-01T21:58:00.133Z,60.52
2018-07-01T22:00:28.892Z,60.76
2018-07-01T22:02:57.218Z,61.09
2018-07-01T22:05:25.531Z,61.29
2018-07-01T22:07:53.265Z,61.58
2018-07-01T22:10:22.177Z,61.75
2018-07-01T22:12:50.494Z,61.76
2018-07-01T22:15:25.390Z,61.89
2018-07-01T22:17:53.735Z,61.82
2018-07-01T22:20:21.481Z,62.07
2018-07-01T22:22:50.394Z,62.31
2018-07-01T22:25:18.140Z,62.58
2018-07-01T22:27:47.403Z,63.08
2018-07-01T22:30:15.725Z,63.15
2018-07-01T22:32:43.461Z,63.41
2018-07-01T22:35:12.399Z,63.67
2018-07-01T22:37:40.734Z,63.81
2018-07-01T22:40:09.068Z,63.95
2018-07-01T22:42:37.377Z,64.13
2018-07-01T22:45:05.717Z,64.12
2018-07-01T22:47:33.456Z,64.12
2018-07-01T22:50:02.367Z,64.22
2018-07-01T22:52:30.102Z,64.23
2018-07-01T22:54:58.996Z,64.31
2018-07-01T22:57:27.321Z,64.44
2018-07-01T22:59:55.644Z,64.60
2018-07-01T23:02:36.755Z,64.83
2018-07-01T23:05:03.413Z,64.83
2018-07-01T23:07:32.317Z,64.84
2018-07-01T23:10:00.643Z,64.79
2018-07-01T23:12:28.373Z,64.85
2018-07-01T23:14:56.694Z,64.90
2018-07-01T23:17:25.592Z,64.91
2018-07-01T23:19:53.333Z,65.07
2018-07-01T23:22:22.231Z,65.17
2018-07-01T23:24:50.561Z,65.38
2018-07-01T23:27:18.883Z,65.47
2018-07-01T23:29:46.666Z,65.40
2018-07-01T23:32:14.989Z,65.35
2018-07-01T23:34:43.898Z,65.36
2018-07-01T23:37:12.926Z,65.32
2018-07-01T23:39:40.188Z,65.29
2018-07-01T23:42:08.869Z,65.22
2018-07-01T23:44:36.623Z,65.16
2018-07-01T23:47:04.938Z,65.00
2018-07-01T23:49:33.248Z,64.94
2018-07-01T23:52:02.151Z,64.71
2018-07-01T23:54:30.452Z,64.71
2018-07-01T23:56:58.204Z,64.71
2018-07-01T23:59:26.524Z,64.56
